Time;durP1;ratioP1;P1;durP2;ratioP2;P2;SDS_P1;SDS_P2;PMS_P1;PMS_P2;Temp;Humidity;BMP_temperature;BMP_pressure;BME280_temperature;BME280_humidity;BME280_pressure;Samples;Min_cycle;Max_cycle;Signal;HPM_P1;HPM_P2
2023/10/26 00:02:03;;;;;;;31.08;23.58;;;;;;;10.38;100.00;97734.78;5031296;28;20147;-86
2023/10/26 00:04:28;;;;;;;32.60;24.20;;;;;;;10.38;100.00;97729.56;5032300;28;20026;-85
2023/10/26 00:06:54;;;;;;;32.40;23.40;;;;;;;10.21;100.00;97707.41;5032518;28;20037;-85
2023/10/26 00:09:19;;;;;;;27.38;21.73;;;;;;;10.14;100.00;97696.63;5030820;28;20056;-86
2023/10/26 00:11:44;;;;;;;29.73;23.63;;;;;;;10.38;100.00;97720.00;5032129;28;20022;-85
2023/10/26 00:14:10;;;;;;;29.75;22.88;;;;;;;10.40;100.00;97725.06;5032527;28;20028;-86
2023/10/26 00:16:35;;;;;;;28.83;21.55;;;;;;;10.38;100.00;97727.78;5032680;28;20029;-86
2023/10/26 00:19:02;;;;;;;29.70;24.00;;;;;;;10.34;100.00;97710.75;5030882;28;20021;-85
2023/10/26 00:21:27;;;;;;;32.65;25.60;;;;;;;10.00;100.00;97658.66;5032364;28;20445;-86
2023/10/26 00:23:52;;;;;;;34.85;27.67;;;;;;;10.22;100.00;97703.84;5032461;28;20045;-86
2023/10/26 00:26:18;;;;;;;37.08;27.30;;;;;;;10.22;100.00;97712.47;5030567;28;20067;-86
2023/10/26 00:28:43;;;;;;;34.83;27.23;;;;;;;10.08;100.00;97681.50;5032252;28;20465;-86
2023/10/26 00:31:08;;;;;;;34.60;25.92;;;;;;;10.27;100.00;97709.56;5032132;28;20358;-86
2023/10/26 00:33:34;;;;;;;32.28;24.85;;;;;;;10.13;100.00;97684.56;5030577;28;20047;-86
2023/10/26 00:35:59;;;;;;;35.30;25.25;;;;;;;10.07;100.00;97668.59;5030776;28;20116;-85
2023/10/26 00:38:24;;;;;;;36.00;27.40;;;;;;;10.28;100.00;97702.59;5031530;28;20077;-85
2023/10/26 00:40:50;;;;;;;38.80;27.95;;;;;;;10.15;100.00;97676.63;5031858;28;20470;-85
2023/10/26 00:43:24;;;;;;;39.60;28.33;;;;;;;10.24;100.00;97705.44;5030576;28;20033;-86
2023/10/26 00:45:53;;;;;;;34.55;26.45;;;;;;;10.10;100.00;97677.00;5030817;28;20029;-85
2023/10/26 00:48:22;;;;;;;38.08;28.02;;;;;;;10.18;100.00;97679.84;5031764;28;20111;-85
2023/10/26 00:50:48;;;;;;;37.00;27.42;;;;;;;10.17;100.00;97687.78;5031881;28;20026;-86
2023/10/26 00:53:16;;;;;;;44.63;29.70;;;;;;;10.00;100.00;97661.28;5031777;28;20028;-85
2023/10/26 00:55:43;;;;;;;37.72;26.70;;;;;;;9.96;100.00;97653.81;5031737;28;20057;-86
2023/10/26 00:58:10;;;;;;;33.90;25.58;;;;;;;9.90;100.00;97625.66;5030704;28;20090;-86
2023/10/26 01:00:37;;;;;;;36.22;26.58;;;;;;;10.14;100.00;97677.59;5031977;28;20029;-86
2023/10/26 01:03:04;;;;;;;37.45;27.40;;;;;;;10.17;100.00;97674.78;5031933;28;20049;-86
2023/10/26 01:05:29;;;;;;;36.53;26.45;;;;;;;10.15;100.00;97661.03;5063632;28;20080;-86
2023/10/26 01:07:54;;;;;;;32.63;26.60;;;;;;;10.19;100.00;97671.09;5030290;28;20025;-85
2023/10/26 01:10:20;;;;;;;34.50;27.35;;;;;;;10.16;100.00;97660.13;5030073;28;20461;-85
2023/10/26 01:12:45;;;;;;;34.03;26.75;;;;;;;10.16;100.00;97680.94;5031971;28;20021;-86
2023/10/26 01:15:11;;;;;;;34.50;26.30;;;;;;;10.26;100.00;97666.28;5031745;28;20435;-86
2023/10/26 01:17:36;;;;;;;34.80;26.00;;;;;;;10.16;100.00;97654.91;5030126;28;20037;-86
2023/10/26 01:20:04;;;;;;;38.03;26.15;;;;;;;10.21;100.00;97674.41;5030318;28;20026;-86
2023/10/26 01:22:31;;;;;;;34.28;25.30;;;;;;;10.20;100.00;97670.16;5031276;28;20038;-86
2023/10/26 01:24:56;;;;;;;32.25;25.50;;;;;;;10.22;100.00;97665.66;5030431;28;20029;-85
2023/10/26 01:27:21;;;;;;;33.65;25.67;;;;;;;10.27;100.00;97669.72;5031446;28;20036;-85
2023/10/26 01:29:47;;;;;;;29.17;23.58;;;;;;;9.79;100.00;97586.69;5030235;28;20052;-85
2023/10/26 01:32:12;;;;;;;29.85;23.92;;;;;;;10.36;100.00;97661.19;5031462;28;20033;-86
2023/10/26 01:34:39;;;;;;;29.05;24.27;;;;;;;10.13;100.00;97629.13;5029948;28;20503;-86
2023/10/26 01:37:05;;;;;;;31.88;24.50;;;;;;;10.26;100.00;97657.66;5031160;28;20057;-86
2023/10/26 01:39:30;;;;;;;31.17;24.70;;;;;;;10.24;100.00;97649.94;5030179;28;20053;-85
2023/10/26 01:41:55;;;;;;;30.10;24.83;;;;;;;10.09;100.00;97619.91;5031559;28;20065;-86
2023/10/26 01:44:21;;;;;;;31.70;24.08;;;;;;;10.10;100.00;97605.94;5031246;28;20026;-85
2023/10/26 01:46:46;;;;;;;32.35;24.77;;;;;;;10.41;100.00;97640.88;5031454;28;20033;-85
2023/10/26 01:49:12;;;;;;;35.30;25.25;;;;;;;10.14;100.00;97597.78;5030107;28;20021;-86
2023/10/26 01:51:38;;;;;;;32.15;24.45;;;;;;;10.21;100.00;97609.38;5033189;28;20485;-86
2023/10/26 01:54:03;;;;;;;33.40;25.42;;;;;;;10.32;100.00;97623.34;5033583;28;20112;-85
2023/10/26 01:56:30;;;;;;;30.77;24.38;;;;;;;10.22;100.00;97607.59;5034814;28;20108;-85
2023/10/26 01:58:55;;;;;;;32.38;24.73;;;;;;;10.00;100.00;97564.22;5092326;28;20085;-85
2023/10/26 02:01:20;;;;;;;30.77;24.27;;;;;;;10.10;100.00;97585.13;5075180;28;20035;-86
2023/10/26 02:03:46;;;;;;;30.33;23.48;;;;;;;10.26;100.00;97593.44;5092503;28;20040;-85
2023/10/26 02:06:11;;;;;;;32.50;23.95;;;;;;;10.29;100.00;97603.63;5092364;28;20036;-85
2023/10/26 02:08:36;;;;;;;37.72;25.73;;;;;;;10.16;100.00;97575.09;5092160;28;20036;-85
2023/10/26 02:11:02;;;;;;;30.65;24.17;;;;;;;10.03;100.00;97556.19;5075375;28;20032;-85
2023/10/26 02:13:27;;;;;;;30.88;24.98;;;;;;;10.01;100.00;97558.06;5092068;28;20430;-85
2023/10/26 02:15:52;;;;;;;31.70;23.83;;;;;;;10.28;100.00;97586.34;5092249;28;20028;-85
2023/10/26 02:18:18;;;;;;;29.15;23.38;;;;;;;10.37;100.00;97585.63;5092198;28;20040;-86
2023/10/26 02:20:43;;;;;;;26.55;22.40;;;;;;;10.25;100.00;97568.38;5091968;28;20036;-86
2023/10/26 02:23:09;;;;;;;29.00;21.73;;;;;;;10.14;100.00;97552.72;5092079;28;20043;-85
2023/10/26 02:25:34;;;;;;;29.35;22.67;;;;;;;10.44;100.00;97570.34;5091794;28;20043;-85
2023/10/26 02:27:59;;;;;;;27.10;21.25;;;;;;;10.45;100.00;97566.81;5075111;28;20056;-85
2023/10/26 02:30:25;;;;;;;27.08;20.75;;;;;;;10.27;100.00;97543.03;5050676;28;20053;-85
2023/10/26 02:32:50;;;;;;;24.70;19.67;;;;;;;10.10;100.00;97509.69;5032862;28;20457;-86
2023/10/26 02:35:16;;;;;;;26.25;21.08;;;;;;;10.44;100.00;97565.13;5034426;28;20464;-85
2023/10/26 02:37:41;;;;;;;29.27;21.75;;;;;;;10.24;100.00;97549.34;5033718;28;20049;-85
2023/10/26 02:40:10;;;;;;;31.20;23.73;;;;;;;10.36;100.00;97559.72;5034240;28;20067;-85
2023/10/26 02:42:36;;;;;;;30.98;22.95;;;;;;;9.96;100.00;97501.22;5032601;28;20026;-85
2023/10/26 02:45:03;;;;;;;29.80;23.50;;;;;;;10.14;100.00;97526.72;5034068;28;20028;-86
2023/10/26 02:47:29;;;;;;;29.70;23.85;;;;;;;10.22;100.00;97526.94;5032378;28;20040;-85
2023/10/26 02:49:54;;;;;;;29.98;24.08;;;;;;;10.38;100.00;97550.03;5032572;28;20432;-86
2023/10/26 02:52:19;;;;;;;29.05;23.98;;;;;;;10.00;100.00;97492.22;5032288;28;20029;-85
2023/10/26 02:54:45;;;;;;;31.48;25.63;;;;;;;10.00;100.00;97494.81;5032346;28;20025;-85
2023/10/26 02:57:10;;;;;;;28.50;22.23;;;;;;;10.31;100.00;97541.84;5033896;28;20061;-85
2023/10/26 02:59:36;;;;;;;31.75;24.35;;;;;;;10.20;100.00;97510.66;5032197;28;20098;-86
2023/10/26 03:02:01;;;;;;;27.58;22.00;;;;;;;10.13;100.00;97486.06;5033324;28;20026;-85
2023/10/26 03:04:26;;;;;;;30.35;22.90;;;;;;;10.34;100.00;97523.41;5033263;28;20029;-85
2023/10/26 03:06:52;;;;;;;28.45;21.73;;;;;;;10.39;100.00;97530.84;5033731;28;20489;-85
2023/10/26 03:09:17;;;;;;;29.17;23.08;;;;;;;10.39;100.00;97523.03;5033652;28;20033;-86
2023/10/26 03:11:43;;;;;;;35.10;22.55;;;;;;;10.39;100.00;97525.63;5031964;28;20045;-85
2023/10/26 03:14:08;;;;;;;28.65;21.27;;;;;;;10.31;100.00;97509.81;5033347;28;20034;-85
2023/10/26 03:16:33;;;;;;;28.08;22.02;;;;;;;10.34;100.00;97509.56;5031851;28;20107;-86
2023/10/26 03:18:59;;;;;;;27.10;21.90;;;;;;;10.41;100.00;97515.94;5033557;28;20021;-85
2023/10/26 03:21:24;;;;;;;25.90;21.00;;;;;;;10.47;100.00;97520.66;5033168;28;20029;-86
2023/10/26 03:23:52;;;;;;;25.20;20.67;;;;;;;10.48;100.00;97527.50;5031876;28;20017;-85
2023/10/26 03:26:21;;;;;;;25.27;20.48;;;;;;;10.40;100.00;97515.09;5033316;28;20116;-85
2023/10/26 03:28:49;;;;;;;23.67;20.25;;;;;;;10.50;100.00;97523.03;5032958;28;20079;-86
2023/10/26 03:31:15;;;;;;;24.00;20.63;;;;;;;10.38;100.00;97501.41;5033100;28;20116;-86
2023/10/26 03:33:40;;;;;;;23.40;19.83;;;;;;;10.47;100.00;97510.25;5032836;28;20108;-85
2023/10/26 03:36:19;;;;;;;25.67;21.40;;;;;;;10.41;100.00;97482.94;5033095;28;20113;-85
2023/10/26 03:38:46;;;;;;;26.25;22.10;;;;;;;10.49;100.00;97503.97;5032802;28;20396;-85
2023/10/26 03:41:12;;;;;;;24.50;19.98;;;;;;;10.27;100.00;97462.41;5033028;28;20029;-85
2023/10/26 03:43:37;;;;;;;27.02;21.05;;;;;;;10.15;100.00;97447.72;5032811;28;20456;-86
2023/10/26 03:46:04;;;;;;;30.73;22.00;;;;;;;10.29;100.00;97470.91;5032848;28;20365;-86
2023/10/26 03:48:30;;;;;;;23.60;20.95;;;;;;;10.47;100.00;97485.03;5032431;28;20055;-86
2023/10/26 03:50:55;;;;;;;24.25;20.70;;;;;;;10.42;100.00;97487.19;5033085;28;20029;-86
2023/10/26 03:53:21;;;;;;;29.40;22.38;;;;;;;10.45;100.00;97484.34;5032671;28;20045;-86
2023/10/26 03:55:46;;;;;;;27.55;21.83;;;;;;;10.39;100.00;97465.78;5032459;28;20025;-86
2023/10/26 03:58:14;;;;;;;26.15;22.05;;;;;;;10.29;100.00;97457.09;5031268;28;20052;-86
2023/10/26 04:00:39;;;;;;;32.10;24.67;;;;;;;10.03;100.00;97423.56;5032243;28;20021;-86
2023/10/26 04:03:04;;;;;;;30.52;23.92;;;;;;;10.42;100.00;97482.00;5032374;28;20427;-86
2023/10/26 04:05:29;;;;;;;32.28;25.52;;;;;;;10.35;100.00;97464.38;5032105;28;20354;-86
2023/10/26 04:07:56;;;;;;;35.72;26.05;;;;;;;10.24;100.00;97449.63;5032521;28;20424;-86
2023/10/26 04:10:22;;;;;;;30.27;22.48;;;;;;;10.25;100.00;97453.91;5031180;28;20075;-86
2023/10/26 04:12:47;;;;;;;28.55;24.70;;;;;;;9.98;100.00;97405.69;5031976;28;20033;-85
2023/10/26 04:15:12;;;;;;;32.88;24.20;;;;;;;10.32;100.00;97457.63;5031904;28;20105;-86
2023/10/26 04:17:38;;;;;;;27.38;23.13;;;;;;;10.00;100.00;97397.78;5032218;28;20084;-86
2023/10/26 04:20:07;;;;;;;31.08;24.83;;;;;;;9.91;100.00;97388.94;5032343;28;20153;-86
2023/10/26 04:22:33;;;;;;;30.77;23.77;;;;;;;10.05;100.00;97419.03;5030773;28;20123;-86
2023/10/26 04:24:58;;;;;;;31.27;25.35;;;;;;;10.18;100.00;97435.31;5032532;28;20427;-86
2023/10/26 04:27:24;;;;;;;32.85;25.42;;;;;;;10.13;100.00;97418.44;5032508;28;20117;-86
2023/10/26 04:29:50;;;;;;;33.55;26.65;;;;;;;10.12;100.00;97429.78;5031770;28;20461;-86
2023/10/26 04:32:15;;;;;;;33.85;24.73;;;;;;;10.08;100.00;97429.22;5029201;28;20040;-86
2023/10/26 04:34:44;;;;;;;38.70;26.33;;;;;;;10.06;100.00;97427.66;5029246;28;20207;-86
2023/10/26 04:37:12;;;;;;;39.55;28.40;;;;;;;10.02;100.00;97418.44;5045830;28;20045;-86
2023/10/26 04:39:41;;;;;;;31.80;25.40;;;;;;;9.68;100.00;97377.75;5029281;28;20485;-86
2023/10/26 04:42:07;;;;;;;35.47;25.52;;;;;;;9.81;100.00;97392.38;5029465;28;20115;-86
2023/10/26 04:44:32;;;;;;;32.85;26.42;;;;;;;9.94;100.00;97417.31;5012697;28;20033;-86
2023/10/26 04:46:57;;;;;;;36.10;27.98;;;;;;;9.94;100.00;97417.31;5029530;28;20420;-86
2023/10/26 04:49:23;;;;;;;37.88;28.73;;;;;;;9.97;100.00;97427.44;5029568;28;20083;-86
2023/10/26 04:51:49;;;;;;;40.22;29.25;;;;;;;9.63;100.00;97379.91;5029360;28;20491;-86
2023/10/26 04:54:14;;;;;;;35.20;27.58;;;;;;;10.02;100.00;97421.06;5045893;28;20029;-86
2023/10/26 04:56:41;;;;;;;39.17;28.92;;;;;;;9.92;100.00;97424.41;5029117;28;20026;-86
2023/10/26 04:59:07;;;;;;;35.88;28.13;;;;;;;9.94;100.00;97399.13;5012745;28;20036;-86
2023/10/26 05:01:32;;;;;;;37.78;27.83;;;;;;;9.96;100.00;97411.97;5029027;28;20029;-86
2023/10/26 05:03:58;;;;;;;34.63;26.95;;;;;;;9.82;100.00;97386.22;5031049;28;20042;-86
2023/10/26 05:06:23;;;;;;;36.95;26.88;;;;;;;9.94;100.00;97391.31;5031753;28;20105;-86
2023/10/26 05:08:48;;;;;;;35.15;27.85;;;;;;;9.77;100.00;97371.00;5030186;28;20112;-86
2023/10/26 05:11:15;;;;;;;40.28;28.58;;;;;;;9.74;100.00;97366.06;5030370;28;20028;-86
2023/10/26 05:13:40;;;;;;;37.40;28.45;;;;;;;9.86;100.00;97404.09;5029951;28;20555;-86
2023/10/26 05:16:05;;;;;;;39.03;27.98;;;;;;;9.95;100.00;97394.72;5031496;28;20104;-86
2023/10/26 05:18:32;;;;;;;35.97;27.83;;;;;;;9.91;100.00;97396.75;5030432;28;20049;-86
2023/10/26 05:20:59;;;;;;;39.83;30.17;;;;;;;9.92;100.00;97400.16;5031683;28;20031;-86
2023/10/26 05:23:25;;;;;;;39.47;29.75;;;;;;;9.77;100.00;97363.19;5031621;28;20029;-86
2023/10/26 05:25:50;;;;;;;32.63;27.42;;;;;;;9.55;100.00;97337.28;5032593;28;20101;-86
2023/10/26 05:28:16;;;;;;;34.55;26.92;;;;;;;10.02;100.00;97397.66;5035363;28;20033;-86
2023/10/26 05:30:41;;;;;;;33.70;25.98;;;;;;;9.75;100.00;97350.34;5033716;28;20032;-85
2023/10/26 05:33:07;;;;;;;35.40;26.65;;;;;;;9.97;100.00;97378.03;5035342;28;20572;-86
2023/10/26 05:35:32;;;;;;;31.20;25.35;;;;;;;10.10;100.00;97396.09;5034099;28;20492;-86
2023/10/26 05:37:58;;;;;;;34.33;25.80;;;;;;;10.12;100.00;97399.41;5033692;28;20045;-86
2023/10/26 05:40:23;;;;;;;33.50;25.85;;;;;;;9.85;100.00;97353.03;5033883;28;20059;-86
2023/10/26 05:42:49;;;;;;;34.35;26.50;;;;;;;10.17;100.00;97402.44;5034891;28;20112;-86
2023/10/26 05:45:14;;;;;;;34.80;25.85;;;;;;;10.22;100.00;97409.88;5035025;28;20025;-86
2023/10/26 05:47:40;;;;;;;32.17;24.85;;;;;;;10.18;100.00;97396.28;5035008;28;20040;-86
2023/10/26 05:50:06;;;;;;;31.33;25.00;;;;;;;10.17;100.00;97388.63;5033845;28;20033;-86
2023/10/26 05:52:31;;;;;;;30.98;25.60;;;;;;;10.14;100.00;97388.88;5033705;28;20362;-86
2023/10/26 05:54:56;;;;;;;30.35;24.08;;;;;;;10.38;100.00;97404.28;5033417;28;20055;-86
2023/10/26 05:57:22;;;;;;;29.30;24.15;;;;;;;10.20;100.00;97377.97;5035146;28;20099;-86
2023/10/26 05:59:47;;;;;;;34.53;25.98;;;;;;;10.39;100.00;97416.34;5034389;28;20033;-86
2023/10/26 06:02:13;;;;;;;33.45;25.48;;;;;;;10.49;100.00;97425.91;5034924;28;20061;-86
2023/10/26 06:04:38;;;;;;;30.40;24.75;;;;;;;10.38;100.00;97405.13;5034611;28;20155;-86
2023/10/26 06:07:03;;;;;;;32.88;24.90;;;;;;;10.47;100.00;97419.97;5033622;28;20029;-86
2023/10/26 06:09:29;;;;;;;31.13;24.67;;;;;;;10.31;100.00;97392.72;5034763;28;20029;-86
2023/10/26 06:11:54;;;;;;;84.38;57.65;;;;;;;10.63;100.00;97436.94;5033026;28;20033;-86
2023/10/26 06:14:20;;;;;;;66.75;50.58;;;;;;;10.42;100.00;97400.50;5034560;28;20056;-86
2023/10/26 06:16:45;;;;;;;52.63;40.05;;;;;;;10.52;100.00;97414.41;5034585;28;20025;-86
2023/10/26 06:19:11;;;;;;;33.78;27.05;;;;;;;10.74;100.00;97442.94;5035029;28;20033;-86
2023/10/26 06:21:38;;;;;;;36.90;27.83;;;;;;;10.61;100.00;97425.81;5033237;28;20377;-86
2023/10/26 06:24:04;;;;;;;34.30;27.30;;;;;;;10.60;100.00;97424.19;5034467;28;20090;-86
2023/10/26 06:26:29;;;;;;;29.17;23.48;;;;;;;10.69;100.00;97434.66;5034458;28;20469;-86
2023/10/26 06:28:55;;;;;;;27.73;21.50;;;;;;;10.81;100.00;97440.63;5034717;28;20033;-86
2023/10/26 06:31:20;;;;;;;28.27;21.83;;;;;;;10.81;100.00;97427.63;5034338;28;20130;-86
2023/10/26 06:33:45;;;;;;;26.83;21.50;;;;;;;10.89;100.00;97434.78;5032745;28;20018;-86
2023/10/26 06:36:11;;;;;;;68.00;40.35;;;;;;;10.84;100.00;97422.16;5032288;28;20087;-86
2023/10/26 06:38:40;;;;;;;140.40;80.22;;;;;;;10.89;100.00;97421.78;5032493;28;20140;-85
2023/10/26 06:41:09;;;;;;;70.10;43.00;;;;;;;10.95;100.00;97436.88;5034035;28;20033;-86
2023/10/26 06:43:36;;;;;;;32.78;25.00;;;;;;;10.71;100.00;97404.13;5033963;28;20404;-86
2023/10/26 06:46:02;;;;;;;30.88;22.98;;;;;;;10.87;100.00;97410.66;5032704;28;20498;-86
2023/10/26 06:48:27;;;;;;;29.88;21.70;;;;;;;10.89;100.00;97406.97;5034012;28;20053;-86
2023/10/26 06:51:04;;;;;;;25.58;19.90;;;;;;;11.06;100.00;97429.00;5033719;28;20040;-86
2023/10/26 06:53:29;;;;;;;26.75;20.38;;;;;;;11.02;100.00;97425.00;5032536;28;20079;-86
2023/10/26 06:55:55;;;;;;;24.55;19.30;;;;;;;10.85;100.00;97395.16;5033545;28;20104;-86
2023/10/26 06:58:20;;;;;;;22.85;19.35;;;;;;;11.26;100.00;97449.97;5034030;28;20025;-86
2023/10/26 07:00:46;;;;;;;22.65;19.15;;;;;;;11.22;100.00;97434.56;5033585;28;20033;-86
2023/10/26 07:03:11;;;;;;;24.40;19.42;;;;;;;11.27;100.00;97435.97;5032536;28;20058;-86
2023/10/26 07:05:36;;;;;;;24.45;19.90;;;;;;;11.10;100.00;97404.34;5033627;28;20500;-86
2023/10/26 07:08:02;;;;;;;23.80;19.23;;;;;;;11.36;100.00;97443.00;5032054;28;20026;-86
2023/10/26 07:10:27;;;;;;;23.55;18.88;;;;;;;11.31;100.00;97430.38;5032068;28;20017;-86
2023/10/26 07:12:52;;;;;;;23.77;19.35;;;;;;;11.30;100.00;97405.25;5032034;28;20025;-86
2023/10/26 07:15:18;;;;;;;26.85;19.08;;;;;;;11.49;100.00;97436.59;5033553;28;20049;-86
2023/10/26 07:17:43;;;;;;;21.58;18.45;;;;;;;11.46;100.00;97434.28;5032044;28;20076;-86
2023/10/26 07:20:12;;;;;;;23.83;20.52;;;;;;;11.47;100.00;97430.72;5033490;28;20083;-86
2023/10/26 07:22:39;;;;;;;23.20;20.23;;;;;;;11.49;100.00;97436.59;5033385;28;20076;-86
2023/10/26 07:25:05;;;;;;;25.35;21.13;;;;;;;11.56;100.00;97449.13;5031802;28;20026;-86
2023/10/26 07:27:31;;;;;;;24.65;20.63;;;;;;;11.48;100.00;97436.75;5033378;28;20029;-86
2023/10/26 07:29:56;;;;;;;23.92;19.67;;;;;;;11.63;100.00;97458.06;5033075;28;20024;-86
2023/10/26 07:32:22;;;;;;;22.00;19.63;;;;;;;11.62;100.00;97461.63;5033116;28;20029;-86
2023/10/26 07:34:47;;;;;;;20.80;17.80;;;;;;;11.46;100.00;97439.50;5032858;28;20029;-86
2023/10/26 07:37:12;;;;;;;19.75;17.65;;;;;;;11.66;100.00;97461.22;5032925;28;20076;-87
2023/10/26 07:39:38;;;;;;;21.17;17.63;;;;;;;11.70;100.00;97465.22;5032925;28;20029;-86
2023/10/26 07:42:04;;;;;;;22.77;18.95;;;;;;;11.61;100.00;97445.16;5032840;28;20087;-86
2023/10/26 07:44:31;;;;;;;18.75;16.02;;;;;;;11.69;100.00;97453.16;5031732;28;20452;-86
2023/10/26 07:46:56;;;;;;;19.35;16.23;;;;;;;11.81;100.00;97471.31;5031394;28;20033;-86
2023/10/26 07:49:22;;;;;;;17.23;14.68;;;;;;;11.60;100.00;97434.88;5031908;28;20025;-86
2023/10/26 07:51:49;;;;;;;18.95;14.60;;;;;;;11.88;100.00;97464.63;5032446;28;20029;-86
2023/10/26 07:54:15;;;;;;;18.15;13.45;;;;;;;11.66;100.00;97424.72;5032592;28;20295;-86
2023/10/26 07:56:40;;;;;;;16.05;13.35;;;;;;;11.88;100.00;97456.78;5064881;28;20333;-86
2023/10/26 07:59:05;;;;;;;17.77;13.57;;;;;;;11.83;100.00;97435.50;5032674;28;20057;-86
2023/10/26 08:01:31;;;;;;;16.63;12.30;;;;;;;11.94;100.00;97448.44;5032640;28;20045;-86
2023/10/26 08:03:57;;;;;;;13.85;11.68;;;;;;;12.10;100.00;97464.41;5030881;28;20120;-86
2023/10/26 08:06:23;;;;;;;14.95;11.90;;;;;;;12.04;100.00;97441.47;5032496;28;20030;-86
2023/10/26 08:08:49;;;;;;;13.02;11.35;;;;;;;12.07;100.00;97443.00;5030862;28;20025;-86
2023/10/26 08:11:15;;;;;;;12.43;11.05;;;;;;;12.31;100.00;97473.94;5032601;28;20098;-86
2023/10/26 08:13:40;;;;;;;18.67;14.38;;;;;;;12.33;100.00;97470.22;5029656;28;20143;-86
2023/10/26 08:16:06;;;;;;;16.48;12.75;;;;;;;12.18;100.00;97441.09;5029602;28;20446;-86
2023/10/26 08:18:32;;;;;;;16.65;14.10;;;;;;;12.37;100.00;97455.94;5029853;28;20048;-86
2023/10/26 08:20:58;;;;;;;17.50;14.02;;;;;;;12.56;100.00;97481.25;5029486;28;20373;-86
2023/10/26 08:23:23;;;;;;;15.50;12.50;;;;;;;12.48;100.00;97458.41;5029711;28;20034;-86
2023/10/26 08:25:49;;;;;;;13.25;11.85;;;;;;;12.61;100.00;97465.97;5029920;28;20029;-86
2023/10/26 08:28:17;;;;;;;15.75;12.02;;;;;;;12.65;100.00;97464.75;5029711;28;20175;-86
2023/10/26 08:30:43;;;;;;;13.75;12.20;;;;;;;12.71;100.00;97448.50;5030017;28;20329;-86
2023/10/26 08:33:08;;;;;;;13.02;11.63;;;;;;;12.91;100.00;97472.84;5029198;28;20041;-86
2023/10/26 08:35:34;;;;;;;15.70;13.73;;;;;;;12.91;100.00;97457.16;5029740;28;20033;-86
2023/10/26 08:37:59;;;;;;;14.52;12.80;;;;;;;12.94;100.00;97454.28;5029186;28;20058;-86
2023/10/26 08:40:24;;;;;;;16.15;11.38;;;;;;;12.91;100.00;97448.50;5029883;28;20033;-86
2023/10/26 08:42:50;;;;;;;12.88;10.85;;;;;;;13.01;100.00;97461.53;5029404;28;20037;-87
2023/10/26 08:45:24;;;;;;;11.75;8.60;;;;;;;12.92;100.00;97453.56;5030347;28;20033;-86
2023/10/26 08:47:50;;;;;;;11.13;8.20;;;;;;;12.87;100.00;97449.75;5031634;28;20470;-87
2023/10/26 08:50:24;;;;;;;7.65;6.22;;;;;;;13.07;100.00;97493.19;5030520;28;20022;-86
2023/10/26 08:52:51;;;;;;;6.60;5.68;;;;;;;13.03;100.00;97476.13;5031422;28;20108;-86
2023/10/26 08:55:16;;;;;;;5.70;4.35;;;;;;;13.03;100.00;97488.38;5032074;28;20029;-86
2023/10/26 08:57:53;;;;;;;4.35;3.38;;;;;;;13.02;100.00;97490.16;5031645;28;20025;-86
2023/10/26 09:00:19;;;;;;;3.42;3.05;;;;;;;13.05;100.00;97484.63;5031735;28;20428;-86
2023/10/26 09:02:49;;;;;;;2.83;2.58;;;;;;;12.78;100.00;97451.41;5035307;28;20040;-86
2023/10/26 09:05:15;;;;;;;2.67;2.40;;;;;;;12.98;100.00;97483.56;5033843;28;20156;-86
2023/10/26 09:07:40;;;;;;;2.53;2.33;;;;;;;12.97;100.00;97485.31;5067576;28;20033;-86
2023/10/26 09:10:06;;;;;;;3.15;2.15;;;;;;;13.01;100.00;97490.28;5033794;28;20033;-86
2023/10/26 09:12:32;;;;;;;2.03;1.92;;;;;;;12.76;100.00;97453.31;5067243;28;20440;-86
2023/10/26 09:15:02;;;;;;;1.80;1.55;;;;;;;12.81;100.00;97469.41;5034893;28;20029;-86
2023/10/26 09:17:29;;;;;;;2.65;1.70;;;;;;;12.81;100.00;97468.56;5066965;28;20525;-86
2023/10/26 09:19:54;;;;;;;4.68;2.47;;;;;;;13.02;100.00;97503.22;5067109;28;20030;-86
2023/10/26 09:22:36;;;;;;;4.78;3.55;;;;;;;13.00;100.00;97510.38;5035216;28;20060;-86
2023/10/26 09:25:09;;;;;;;7.25;4.75;;;;;;;12.75;100.00;97475.19;5034921;28;20100;-86
2023/10/26 09:27:35;;;;;;;5.80;3.85;;;;;;;12.61;100.00;97454.72;5034982;28;20029;-86
2023/10/26 09:30:02;;;;;;;3.42;3.13;;;;;;;12.90;100.00;97504.34;5034587;28;20037;-86
2023/10/26 09:32:35;;;;;;;2.40;1.90;;;;;;;12.86;100.00;97497.72;5033718;28;20457;-86
2023/10/26 09:35:02;;;;;;;1.92;1.83;;;;;;;13.00;100.00;97505.13;5066642;28;20493;-86
2023/10/26 09:37:28;;;;;;;1.60;1.50;;;;;;;12.79;100.00;97483.56;5033400;28;20140;-86
2023/10/26 09:39:55;;;;;;;1.83;1.73;;;;;;;12.83;100.00;97493.59;5066389;28;20029;-86
2023/10/26 09:42:21;;;;;;;2.20;2.00;;;;;;;12.80;100.00;97499.09;5031878;28;20050;-86
2023/10/26 09:44:46;;;;;;;2.65;2.20;;;;;;;12.65;100.00;97476.97;5031953;28;20500;-86
2023/10/26 09:47:12;;;;;;;2.75;2.30;;;;;;;12.93;100.00;97523.16;5031923;28;20057;-86
2023/10/26 09:49:38;;;;;;;5.50;2.85;;;;;;;12.85;100.00;97502.13;5032246;28;20588;-86
2023/10/26 09:52:04;;;;;;;2.45;2.25;;;;;;;12.96;100.00;97514.22;5048253;28;20075;-86
2023/10/26 09:54:37;;;;;;;2.22;2.03;;;;;;;12.92;100.00;97491.94;5031988;28;20232;-86
2023/10/26 09:57:10;;;;;;;2.60;2.40;;;;;;;13.13;100.00;97505.66;5015002;28;20129;-86
2023/10/26 09:59:36;;;;;;;2.70;2.20;;;;;;;13.11;100.00;97484.09;5031754;28;20101;-86
2023/10/26 10:02:18;;;;;;;3.78;2.25;;;;;;;13.42;100.00;97504.81;5014876;28;20037;-86
2023/10/26 10:04:44;;;;;;;2.20;2.00;;;;;;;13.58;100.00;97509.47;5015089;28;20029;-86
2023/10/26 10:07:16;;;;;;;2.67;2.45;;;;;;;13.63;100.00;97497.59;5014887;28;20041;-86
2023/10/26 10:10:03;;;;;;;4.32;2.13;;;;;;;13.75;100.00;97513.13;5031668;28;20033;-86
2023/10/26 10:12:28;;;;;;;3.35;2.50;;;;;;;13.83;100.00;97508.00;5030738;28;20351;-86
2023/10/26 10:14:55;;;;;;;4.05;2.80;;;;;;;13.82;100.00;97504.56;5065842;28;20656;-86
2023/10/26 10:17:22;;;;;;;4.03;2.88;;;;;;;13.74;100.00;97488.75;5034059;28;20057;-86
2023/10/26 10:20:14;;;;;;;4.68;2.60;;;;;;;13.94;100.00;97516.47;5033911;28;20076;-86
2023/10/26 10:22:48;;;;;;;2.78;1.90;;;;;;;13.98;100.00;97504.75;5034094;28;20036;-86
2023/10/26 10:25:17;;;;;;;2.10;1.90;;;;;;;13.95;100.00;97501.63;5033715;28;20060;-86
2023/10/26 10:27:48;;;;;;;2.13;1.95;;;;;;;14.03;100.00;97506.09;5033951;28;20120;-86
2023/10/26 10:30:16;;;;;;;2.20;1.73;;;;;;;13.76;100.00;97460.66;5033773;28;20022;-86
2023/10/26 10:32:47;;;;;;;3.35;2.25;;;;;;;14.18;100.00;97499.41;5032247;28;20481;-86
2023/10/26 10:35:21;;;;;;;3.28;2.20;;;;;;;14.29;100.00;97498.41;5033619;28;20033;-86
2023/10/26 10:38:15;;;;;;;2.30;1.70;;;;;;;14.39;100.00;97496.53;5033700;28;20081;-86
2023/10/26 10:41:01;;;;;;;1.92;1.83;;;;;;;14.48;100.00;97499.09;5065646;28;20083;-86
2023/10/26 10:43:37;;;;;;;1.92;1.50;;;;;;;14.51;100.00;97505.84;5033642;28;20108;-86
2023/10/26 10:46:09;;;;;;;2.08;1.50;;;;;;;14.63;100.00;97506.47;5033331;28;20063;-86
2023/10/26 10:48:35;;;;;;;;;;;;;;;14.61;100.00;97498.75;5033826;28;20108;-86
2023/10/26 10:51:00;;;;;;;1.48;1.38;;;;;;;14.40;100.00;97451.84;5033395;28;20016;-86
2023/10/26 10:53:29;;;;;;;1.60;1.50;;;;;;;14.45;100.00;97461.88;5033097;28;20025;-86
2023/10/26 10:55:55;;;;;;;6.63;5.65;;;;;;;14.68;100.00;97497.19;5033321;28;20167;-86
2023/10/26 10:58:20;;;;;;;4.20;3.80;;;;;;;14.53;100.00;97474.25;5065337;28;20487;-86
2023/10/26 11:00:48;;;;;;;3.20;2.88;;;;;;;14.64;100.00;97495.81;5065201;28;20029;-86
2023/10/26 11:03:21;;;;;;;3.42;3.13;;;;;;;14.60;100.00;97486.63;5031698;28;20095;-86
2023/10/26 11:05:47;;;;;;;2.40;1.90;;;;;;;14.60;100.00;97497.09;5031860;28;20021;-86
2023/10/26 11:08:12;;;;;;;2.60;2.40;;;;;;;14.50;100.00;97469.34;5031547;28;20605;-86
2023/10/26 11:10:38;;;;;;;2.38;2.17;;;;;;;14.54;100.00;97481.13;5065156;28;20025;-86
2023/10/26 11:13:04;;;;;;;2.83;2.63;;;;;;;14.63;100.00;97496.00;5031503;28;20445;-86